Time;durP1;ratioP1;P1;durP2;ratioP2;P2;SDS_P1;SDS_P2;PMS_P1;PMS_P2;Temp;Humidity;BMP_temperature;BMP_pressure;BME280_temperature;BME280_humidity;BME280_pressure;Samples;Min_cycle;Max_cycle;Signal;HPM_P1;HPM_P2
2023/08/02 00:01:10;;;;;;;887.30;814.28;;;;;;;17.83;74.95;98522.28;5053849;28;20112;-75
2023/08/02 00:03:35;;;;;;;916.58;843.67;;;;;;;17.80;75.24;98522.97;5053793;28;20406;-76
2023/08/02 00:06:01;;;;;;;809.38;744.95;;;;;;;17.74;75.67;98521.56;5054561;28;20105;-75
2023/08/02 00:08:28;;;;;;;968.65;890.80;;;;;;;17.74;75.36;98527.09;5054039;28;20036;-78
2023/08/02 00:10:54;;;;;;;864.67;796.78;;;;;;;17.61;75.93;98532.59;5054308;28;20466;-75
2023/08/02 00:13:19;;;;;;;828.05;765.70;;;;;;;17.61;75.85;98520.78;5053931;28;20028;-75
2023/08/02 00:15:45;;;;;;;861.05;792.45;;;;;;;17.68;76.02;98520.19;5054632;28;20405;-75
2023/08/02 00:18:10;;;;;;;843.33;778.17;;;;;;;17.69;75.55;98519.88;5054074;28;20074;-74
2023/08/02 00:20:37;;;;;;;910.53;837.53;;;;;;;17.69;75.61;98517.13;5058972;28;20039;-75
2023/08/02 00:23:02;;;;;;;943.92;868.05;;;;;;;17.69;75.54;98516.31;5053842;28;20024;-78
2023/08/02 00:25:27;;;;;;;971.80;891.35;;;;;;;17.70;75.74;98506.88;5044383;28;20029;-75
2023/08/02 00:27:53;;;;;;;930.28;852.78;;;;;;;17.61;75.52;98504.25;5053690;28;20083;-75
2023/08/02 00:30:18;;;;;;;951.27;873.70;;;;;;;17.64;75.61;98506.31;5053287;28;20029;-75
2023/08/02 00:32:47;;;;;;;938.00;864.47;;;;;;;17.51;76.23;98511.00;5053960;28;20256;-75
2023/08/02 00:35:13;;;;;;;903.20;833.63;;;;;;;17.58;75.84;98500.22;5053685;28;20312;-74
2023/08/02 00:37:40;;;;;;;901.42;831.55;;;;;;;17.57;75.80;98497.81;5053748;28;20033;-75
2023/08/02 00:40:06;;;;;;;793.78;733.13;;;;;;;17.51;75.94;98505.50;5057340;28;20086;-75
2023/08/02 00:42:31;;;;;;;895.22;825.65;;;;;;;17.49;75.56;98502.28;5053423;28;20413;-75
2023/08/02 00:44:56;;;;;;;1005.75;922.08;;;;;;;17.57;75.89;98492.31;5053578;28;20024;-76
2023/08/02 00:47:24;;;;;;;1051.60;964.67;;;;;;;17.61;75.78;98499.53;5048437;28;20043;-75
2023/08/02 00:49:49;;;;;;;1052.70;959.58;;;;;;;17.62;75.25;98500.34;5053235;28;20341;-75
2023/08/02 00:52:14;;;;;;;1028.55;937.38;;;;;;;17.56;75.84;98502.50;5052972;28;20120;-75
2023/08/02 00:54:41;;;;;;;933.25;857.45;;;;;;;17.55;75.63;98492.66;5035255;28;20056;-78
2023/08/02 00:57:08;;;;;;;955.88;878.33;;;;;;;17.61;75.56;98490.47;5053116;28;20036;-74
2023/08/02 00:59:36;;;;;;;881.25;811.40;;;;;;;17.67;75.38;98491.03;5052771;28;20032;-74
2023/08/02 01:02:01;;;;;;;858.38;793.63;;;;;;;17.64;75.21;98497.22;5052841;28;20037;-75
2023/08/02 01:04:27;;;;;;;910.55;838.28;;;;;;;17.65;75.56;98490.59;5053389;28;20105;-75
2023/08/02 01:07:05;;;;;;;864.70;798.85;;;;;;;17.70;74.89;98490.34;5053343;28;20094;-75
2023/08/02 01:10:32;;;;;;;870.80;805.42;;;;;;;17.68;74.65;98487.13;5047559;28;20032;-76
2023/08/02 01:13:02;;;;;;;852.20;787.03;;;;;;;17.64;75.19;98486.22;4985708;28;20050;-75
2023/08/02 01:15:28;;;;;;;1024.32;936.55;;;;;;;17.33;76.42;98483.66;4992708;28;20480;-75
2023/08/02 01:17:54;;;;;;;989.85;907.38;;;;;;;17.43;76.25;98465.88;5021696;28;20041;-75
2023/08/02 01:20:20;;;;;;;994.97;913.55;;;;;;;17.48;75.92;98462.09;5052805;28;20032;-75
2023/08/02 01:22:45;;;;;;;987.78;908.40;;;;;;;17.50;75.84;98459.81;5048982;28;20013;-75
2023/08/02 01:25:11;;;;;;;934.13;857.67;;;;;;;17.53;76.08;98450.88;5056429;28;20037;-76
2023/08/02 01:27:54;;;;;;;987.45;905.00;;;;;;;17.48;75.82;98448.31;5052990;28;20063;-76
2023/08/02 01:30:22;;;;;;;881.30;809.45;;;;;;;17.46;76.20;98453.38;5052418;28;20033;-75
2023/08/02 01:32:48;;;;;;;837.28;773.63;;;;;;;17.37;76.65;98456.25;5053044;28;20036;-75
2023/08/02 01:35:15;;;;;;;828.90;767.13;;;;;;;17.44;76.33;98458.41;5052913;28;20025;-75
2023/08/02 01:37:42;;;;;;;870.70;802.72;;;;;;;17.43;76.45;98460.38;5052601;28;20036;-76
2023/08/02 01:40:08;;;;;;;882.60;815.22;;;;;;;17.49;76.15;98460.97;5052784;28;20040;-75
2023/08/02 01:42:33;;;;;;;835.22;768.17;;;;;;;17.39;76.61;98454.75;5052176;28;20142;-75
2023/08/02 01:44:59;;;;;;;917.00;844.53;;;;;;;17.38;76.77;98442.13;5057584;28;20935;-75
2023/08/02 01:47:24;;;;;;;893.30;827.22;;;;;;;17.32;77.06;98442.69;5034490;28;20323;-75
2023/08/02 01:49:49;;;;;;;743.33;689.93;;;;;;;17.36;77.14;98446.38;5052270;28;20066;-75
2023/08/02 01:52:15;;;;;;;715.17;663.45;;;;;;;17.35;77.04;98448.31;5052275;28;20265;-75
2023/08/02 01:54:40;;;;;;;705.65;654.03;;;;;;;17.39;76.77;98451.19;5052318;28;20112;-76
2023/08/02 01:57:05;;;;;;;673.80;627.03;;;;;;;17.42;76.86;98435.91;5050823;28;20028;-76
2023/08/02 01:59:31;;;;;;;660.53;614.15;;;;;;;17.46;76.76;98418.38;5046572;28;20254;-76
2023/08/02 02:01:56;;;;;;;641.40;597.33;;;;;;;17.60;76.29;98415.25;5045532;28;20033;-75
2023/08/02 02:04:21;;;;;;;627.57;583.37;;;;;;;17.55;76.14;98426.53;5047844;28;20043;-76
2023/08/02 02:06:47;;;;;;;677.75;629.35;;;;;;;17.45;76.66;98414.00;5032553;28;20296;-75
2023/08/02 02:09:12;;;;;;;680.00;627.50;;;;;;;17.51;76.73;98422.84;5051358;28;20029;-75
2023/08/02 02:11:37;;;;;;;682.08;625.78;;;;;;;17.47;76.85;98417.22;5052053;28;20029;-75
2023/08/02 02:14:03;;;;;;;584.60;541.78;;;;;;;17.48;76.65;98412.50;5051887;28;20040;-75
2023/08/02 02:16:28;;;;;;;675.23;620.27;;;;;;;17.55;76.82;98423.78;5052066;28;20028;-75
2023/08/02 02:18:53;;;;;;;701.65;644.08;;;;;;;17.65;76.17;98424.44;5052403;28;20286;-75
2023/08/02 02:21:18;;;;;;;693.43;635.63;;;;;;;17.74;76.10;98409.41;5043218;28;20111;-75
2023/08/02 02:23:44;;;;;;;713.57;654.33;;;;;;;17.83;75.57;98406.53;5051447;28;20265;-75
2023/08/02 02:26:09;;;;;;;760.90;697.83;;;;;;;17.87;75.43;98389.28;5051711;28;20290;-75
2023/08/02 02:28:34;;;;;;;763.88;697.10;;;;;;;17.88;75.47;98393.66;5052297;28;20265;-82
2023/08/02 02:30:59;;;;;;;636.05;583.10;;;;;;;17.90;75.42;98407.91;5053456;28;20033;-81
2023/08/02 02:33:25;;;;;;;623.33;578.35;;;;;;;17.84;75.48;98404.56;5053857;28;21224;-82
2023/08/02 02:35:50;;;;;;;659.88;609.70;;;;;;;17.72;75.97;98394.34;5051001;28;21222;-82
2023/08/02 02:38:15;;;;;;;651.13;603.90;;;;;;;17.76;76.38;98381.47;5053365;28;20021;-75
2023/08/02 02:40:42;;;;;;;651.90;597.33;;;;;;;17.88;75.95;98379.88;5051494;28;20360;-76
2023/08/02 02:43:07;;;;;;;652.15;600.83;;;;;;;17.96;75.37;98387.19;5051374;28;20269;-75
2023/08/02 02:45:32;;;;;;;644.07;591.87;;;;;;;17.89;75.58;98387.78;5051099;28;20033;-75
2023/08/02 02:47:58;;;;;;;639.73;591.10;;;;;;;17.87;75.92;98378.25;5052534;28;20284;-75
2023/08/02 02:50:23;;;;;;;576.23;537.60;;;;;;;17.71;76.47;98376.22;5051648;28;20254;-75
2023/08/02 02:52:48;;;;;;;677.73;626.97;;;;;;;17.74;76.35;98361.72;5051228;28;20325;-75
2023/08/02 02:55:14;;;;;;;668.93;618.97;;;;;;;17.80;76.08;98357.59;5051005;28;20297;-75
2023/08/02 02:57:39;;;;;;;568.17;528.65;;;;;;;17.85;76.00;98349.09;5050126;28;20246;-74
2023/08/02 03:00:05;;;;;;;700.20;642.63;;;;;;;17.83;75.81;98334.84;5051103;28;20424;-74
2023/08/02 03:02:31;;;;;;;640.33;587.63;;;;;;;17.89;75.90;98323.56;5050738;28;20308;-74
2023/08/02 03:04:56;;;;;;;650.78;602.63;;;;;;;17.90;75.85;98328.72;5052266;28;20399;-75
2023/08/02 03:07:21;;;;;;;621.67;578.03;;;;;;;17.91;75.48;98319.31;5054127;28;20029;-75
2023/08/02 03:09:47;;;;;;;589.20;548.37;;;;;;;17.88;75.62;98317.25;5050663;28;20064;-76
2023/08/02 03:12:12;;;;;;;663.03;612.72;;;;;;;17.96;75.59;98313.56;5050649;28;20254;-74
2023/08/02 03:14:37;;;;;;;591.00;550.93;;;;;;;17.94;75.42;98317.84;5051067;28;20654;-75
2023/08/02 03:17:03;;;;;;;536.27;501.73;;;;;;;17.84;75.97;98314.41;5033116;28;20266;-75
2023/08/02 03:19:28;;;;;;;613.80;570.60;;;;;;;17.90;75.64;98319.69;5050624;28;20250;-75
2023/08/02 03:21:53;;;;;;;602.67;561.87;;;;;;;17.88;75.95;98313.72;5050583;28;20516;-76
2023/08/02 03:24:18;;;;;;;613.40;573.17;;;;;;;17.79;76.18;98311.91;5050503;28;20322;-75
2023/08/02 03:26:44;;;;;;;556.60;519.80;;;;;;;17.77;75.88;98314.19;5050291;28;21106;-75
2023/08/02 03:29:09;;;;;;;573.20;534.17;;;;;;;17.80;76.11;98312.69;5049870;28;20260;-75
2023/08/02 03:31:34;;;;;;;630.63;586.67;;;;;;;17.70;76.31;98311.22;5050707;28;20270;-76
2023/08/02 03:33:59;;;;;;;569.15;531.75;;;;;;;17.73;76.31;98303.09;5049503;28;20025;-75
2023/08/02 03:36:25;;;;;;;520.28;486.95;;;;;;;17.74;76.48;98298.34;5053761;28;20107;-74
2023/08/02 03:38:50;;;;;;;588.90;548.38;;;;;;;17.68;76.49;98302.50;5060026;28;20032;-81
2023/08/02 03:41:16;;;;;;;536.47;502.07;;;;;;;17.68;76.56;98297.00;5053162;28;20021;-81
2023/08/02 03:43:41;;;;;;;547.45;510.58;;;;;;;17.55;77.15;98280.50;5057592;28;20257;-81
2023/08/02 03:46:07;;;;;;;556.47;518.83;;;;;;;17.57;77.48;98271.91;5052862;28;20029;-81
2023/08/02 03:48:32;;;;;;;534.25;499.23;;;;;;;17.55;76.90;98280.50;5051719;28;20278;-74
2023/08/02 03:50:58;;;;;;;594.45;553.53;;;;;;;17.55;76.96;98280.50;5050252;28;20107;-75
2023/08/02 03:53:25;;;;;;;586.83;544.85;;;;;;;17.57;77.12;98261.69;5050155;28;20037;-79
2023/08/02 03:55:50;;;;;;;559.72;517.33;;;;;;;17.54;77.41;98256.03;5050592;28;20032;-75
2023/08/02 03:58:15;;;;;;;568.10;527.60;;;;;;;17.57;77.30;98247.91;5050286;28;20601;-75
2023/08/02 04:00:41;;;;;;;579.97;535.90;;;;;;;17.57;77.17;98245.16;5050089;28;20246;-74
2023/08/02 04:03:06;;;;;;;569.10;527.42;;;;;;;17.48;77.33;98241.72;5049925;28;20286;-75
2023/08/02 04:05:31;;;;;;;527.90;488.85;;;;;;;17.43;77.70;98244.72;5050057;28;20085;-79
2023/08/02 04:07:56;;;;;;;519.88;482.90;;;;;;;17.42;77.96;98227.38;5047656;28;20119;-77
2023/08/02 04:10:22;;;;;;;567.30;524.27;;;;;;;17.42;77.73;98243.91;5044626;28;20037;-75
2023/08/02 04:12:53;;;;;;;548.97;507.63;;;;;;;17.49;77.61;98238.59;5042618;28;20265;-75
2023/08/02 04:15:18;;;;;;;545.72;505.45;;;;;;;17.39;77.82;98242.66;5047942;28;20034;-76
2023/08/02 04:17:44;;;;;;;657.80;606.22;;;;;;;17.58;77.69;98238.47;5048910;28;20501;-75
2023/08/02 04:20:10;;;;;;;568.85;526.65;;;;;;;17.65;77.14;98239.84;5049931;28;20033;-74
2023/08/02 04:22:36;;;;;;;552.00;512.38;;;;;;;17.71;76.97;98241.19;5049848;28;20046;-75
2023/08/02 04:25:02;;;;;;;600.72;552.72;;;;;;;17.67;77.21;98232.84;5050195;28;20025;-75
2023/08/02 04:27:28;;;;;;;564.42;523.10;;;;;;;17.73;76.61;98230.63;5050136;28;20025;-75
2023/08/02 04:29:53;;;;;;;570.38;529.88;;;;;;;17.74;76.61;98210.16;5049518;28;20470;-75
2023/08/02 04:32:18;;;;;;;626.57;582.07;;;;;;;17.76;76.40;98213.38;5049596;28;20037;-76
2023/08/02 04:34:43;;;;;;;571.87;532.50;;;;;;;17.76;76.37;98198.81;5050196;28;20293;-75
2023/08/02 04:37:09;;;;;;;684.37;637.73;;;;;;;17.71;76.49;98194.34;5049971;28;20268;-75
2023/08/02 04:39:34;;;;;;;579.23;540.23;;;;;;;17.73;76.46;98200.31;5049534;28;20266;-75
2023/08/02 04:42:02;;;;;;;585.73;544.77;;;;;;;17.74;76.38;98201.91;5050091;28;20250;-75
2023/08/02 04:44:28;;;;;;;520.65;486.30;;;;;;;17.74;76.48;98182.59;5050687;28;20320;-75
2023/08/02 04:46:53;;;;;;;604.30;560.65;;;;;;;17.61;76.79;98176.38;5053698;28;20021;-75
2023/08/02 04:49:18;;;;;;;514.88;480.80;;;;;;;17.59;77.31;98167.66;5052641;28;20470;-75
2023/08/02 04:51:44;;;;;;;557.50;518.90;;;;;;;17.47;77.52;98151.97;5058001;28;20033;-75
2023/08/02 04:54:09;;;;;;;510.17;473.45;;;;;;;17.45;77.99;98144.03;5052911;28;20309;-75
2023/08/02 04:56:35;;;;;;;623.70;576.00;;;;;;;17.45;78.03;98143.25;5053734;28;20412;-75
2023/08/02 04:59:00;;;;;;;545.03;505.17;;;;;;;17.54;77.72;98140.34;5053055;28;20033;-76
2023/08/02 05:01:25;;;;;;;552.93;511.87;;;;;;;17.52;77.87;98126.91;5052948;28;20025;-75
2023/08/02 05:03:50;;;;;;;530.60;492.50;;;;;;;17.60;77.67;98122.41;5053487;28;20313;-75
2023/08/02 05:06:16;;;;;;;491.08;455.45;;;;;;;17.64;77.26;98117.78;5051949;28;20033;-76
2023/08/02 05:08:41;;;;;;;527.93;492.10;;;;;;;17.66;77.20;98107.22;5052970;28;20120;-75
2023/08/02 05:11:07;;;;;;;537.42;499.63;;;;;;;17.69;77.00;98109.28;5053228;28;20611;-75
2023/08/02 05:13:33;;;;;;;558.75;519.97;;;;;;;17.74;76.95;98105.44;5053228;28;20021;-75
2023/08/02 05:15:59;;;;;;;557.65;515.28;;;;;;;17.72;77.35;98089.28;5052796;28;20021;-74
2023/08/02 05:18:24;;;;;;;600.35;556.83;;;;;;;17.67;77.19;98077.72;5053036;28;20035;-75
2023/08/02 05:20:49;;;;;;;587.25;544.45;;;;;;;17.58;77.98;98081.44;5052576;28;20032;-75
2023/08/02 05:23:15;;;;;;;558.67;516.60;;;;;;;17.70;77.49;98082.50;5052534;28;21376;-75
2023/08/02 05:25:41;;;;;;;537.63;500.85;;;;;;;17.66;77.53;98076.91;5052923;28;20475;-75
2023/08/02 05:28:06;;;;;;;483.98;449.60;;;;;;;17.61;77.82;98066.94;5052973;28;20111;-75
2023/08/02 05:30:32;;;;;;;554.13;513.42;;;;;;;17.47;78.72;98061.84;5051886;28;20090;-75
2023/08/02 05:32:58;;;;;;;561.58;518.97;;;;;;;17.60;78.50;98067.31;5052828;28;20107;-75
2023/08/02 05:35:25;;;;;;;565.30;524.83;;;;;;;17.57;78.24;98070.78;5057499;28;20021;-77
2023/08/02 05:37:51;;;;;;;594.67;550.88;;;;;;;17.53;78.33;98067.94;5052793;28;20364;-75
2023/08/02 05:40:16;;;;;;;584.63;540.22;;;;;;;17.47;78.42;98058.31;5052199;28;20048;-75
2023/08/02 05:42:42;;;;;;;598.03;551.57;;;;;;;17.53;78.41;98056.09;5052314;28;20021;-75
2023/08/02 05:45:07;;;;;;;615.97;568.53;;;;;;;17.58;78.07;98048.38;5051637;28;20758;-75
2023/08/02 05:47:33;;;;;;;591.30;547.45;;;;;;;17.63;78.53;98039.06;5051522;28;20270;-75
2023/08/02 05:49:58;;;;;;;586.00;539.33;;;;;;;17.55;78.15;98026.25;5051948;28;20043;-75
2023/08/02 05:52:25;;;;;;;692.85;637.70;;;;;;;17.65;78.39;98019.41;5051590;28;20032;-76
2023/08/02 05:54:50;;;;;;;597.55;552.08;;;;;;;17.73;78.01;98010.16;5052286;28;20027;-75
2023/08/02 05:57:15;;;;;;;610.45;563.97;;;;;;;17.74;78.64;98014.50;5051108;28;20099;-74
2023/08/02 05:59:41;;;;;;;643.43;591.27;;;;;;;17.77;78.58;98011.06;5054113;28;20116;-81
2023/08/02 06:02:07;;;;;;;525.23;486.67;;;;;;;17.83;78.18;98012.38;5057585;28;20784;-81
2023/08/02 06:04:38;;;;;;;712.10;657.22;;;;;;;17.72;78.39;98014.88;5036547;28;20262;-81
2023/08/02 06:07:03;;;;;;;683.17;630.58;;;;;;;17.78;78.66;98012.63;5052251;28;20025;-81
2023/08/02 06:09:29;;;;;;;664.15;615.47;;;;;;;17.80;78.73;98009.53;5053849;28;20090;-81
2023/08/02 06:11:54;;;;;;;680.97;631.22;;;;;;;17.90;78.46;98000.72;5053734;28;20037;-81
2023/08/02 06:14:20;;;;;;;621.97;576.17;;;;;;;17.88;78.19;97994.75;5054113;28;20091;-81
2023/08/02 06:16:45;;;;;;;671.90;623.03;;;;;;;17.87;79.05;97987.66;5054149;28;20650;-81
2023/08/02 06:19:10;;;;;;;748.17;692.50;;;;;;;17.94;79.29;97976.78;5053255;28;21032;-82
2023/08/02 06:21:36;;;;;;;744.27;688.37;;;;;;;17.83;80.33;97975.75;5052072;28;20029;-81
2023/08/02 06:24:01;;;;;;;707.35;654.65;;;;;;;17.92;80.45;97965.31;5029816;28;20835;-82
2023/08/02 06:26:27;;;;;;;780.47;720.55;;;;;;;17.94;80.73;97968.53;5046044;28;20028;-82
2023/08/02 06:28:52;;;;;;;727.78;673.90;;;;;;;17.96;80.86;97963.44;5050502;28;20029;-81
2023/08/02 06:31:18;;;;;;;793.25;734.78;;;;;;;17.94;81.05;97965.00;5052374;28;20029;-81
2023/08/02 06:33:43;;;;;;;743.47;688.30;;;;;;;17.82;81.44;97968.63;5054275;28;20469;-82
2023/08/02 06:36:08;;;;;;;776.30;716.38;;;;;;;17.85;81.76;97976.19;5057596;28;20252;-82
2023/08/02 06:38:34;;;;;;;761.95;706.92;;;;;;;17.82;81.99;97963.13;5047245;28;20033;-82
2023/08/02 06:40:59;;;;;;;781.00;723.10;;;;;;;17.74;82.10;97951.13;5053537;28;20083;-80
2023/08/02 06:43:24;;;;;;;791.90;731.50;;;;;;;17.75;82.50;97952.75;5053331;28;20072;-81
2023/08/02 06:45:50;;;;;;;774.13;719.20;;;;;;;17.75;82.83;97947.22;5053100;28;20083;-81
2023/08/02 06:48:19;;;;;;;806.90;751.20;;;;;;;17.77;82.98;97944.91;5054052;28;20254;-81
2023/08/02 06:50:45;;;;;;;772.22;719.22;;;;;;;17.76;83.31;97940.53;5053992;28;20348;-81
2023/08/02 06:53:10;;;;;;;820.40;758.28;;;;;;;17.82;83.17;97930.84;5044118;28;20363;-82
2023/08/02 06:55:35;;;;;;;747.83;691.97;;;;;;;17.93;82.87;97938.56;5044218;28;20033;-81
2023/08/02 06:58:00;;;;;;;810.90;752.47;;;;;;;17.89;83.02;97915.63;5043283;28;20025;-81
2023/08/02 07:00:29;;;;;;;841.45;779.53;;;;;;;18.00;82.68;97918.66;5043102;28;20366;-81
2023/08/02 07:02:54;;;;;;;808.85;749.92;;;;;;;18.01;82.79;97901.72;5042547;28;20059;-81
2023/08/02 07:05:23;;;;;;;833.03;771.83;;;;;;;17.88;83.46;97897.50;5043223;28;20037;-81
2023/08/02 07:07:48;;;;;;;840.38;779.95;;;;;;;17.97;83.24;97893.41;5043557;28;20262;-81
2023/08/02 07:10:14;;;;;;;853.17;792.90;;;;;;;18.06;83.34;97884.91;5043290;28;20059;-82
2023/08/02 07:12:40;;;;;;;925.45;852.72;;;;;;;18.17;83.11;97871.38;5044029;28;20273;-81
2023/08/02 07:15:05;;;;;;;917.40;848.67;;;;;;;18.12;83.17;97870.84;5043593;28;20557;-81
2023/08/02 07:17:30;;;;;;;872.10;812.08;;;;;;;18.19;83.56;97854.47;5043492;28;20344;-81
2023/08/02 07:19:56;;;;;;;843.63;784.40;;;;;;;18.15;83.22;97850.81;5042377;28;20059;-76
2023/08/02 07:22:21;;;;;;;852.60;790.88;;;;;;;18.19;83.92;97840.69;5042371;28;20604;-76
2023/08/02 07:24:46;;;;;;;868.33;805.70;;;;;;;18.11;84.38;97842.47;5042990;28;20036;-76
2023/08/02 07:27:12;;;;;;;811.57;753.97;;;;;;;17.84;85.07;97832.06;5042577;28;20793;-75
2023/08/02 07:29:37;;;;;;;962.20;885.13;;;;;;;17.97;85.15;97837.47;5042460;28;20270;-75
2023/08/02 07:32:02;;;;;;;916.23;843.63;;;;;;;18.02;84.91;97826.13;5042940;28;20047;-76
2023/08/02 07:34:28;;;;;;;881.08;818.95;;;;;;;18.13;84.80;97818.09;5042281;28;20331;-76
2023/08/02 07:36:53;;;;;;;906.33;833.53;;;;;;;18.14;85.07;97818.88;5042780;28;20371;-78
2023/08/02 07:39:18;;;;;;;878.33;812.70;;;;;;;18.15;84.84;97814.97;5042218;28;20340;-76
2023/08/02 07:41:43;;;;;;;928.30;860.00;;;;;;;18.07;85.70;97809.31;5042487;28;20612;-75
2023/08/02 07:44:09;;;;;;;911.97;843.28;;;;;;;17.98;86.05;97811.47;5042665;28;20755;-75
2023/08/02 07:46:34;;;;;;;905.20;838.80;;;;;;;18.07;85.68;97794.72;5042923;28;20389;-75
2023/08/02 07:49:00;;;;;;;942.17;868.92;;;;;;;18.00;85.75;97787.09;5041941;28;20036;-75
2023/08/02 07:51:25;;;;;;;892.93;825.53;;;;;;;18.03;86.31;97777.31;5042762;28;20033;-75
2023/08/02 07:53:50;;;;;;;937.67;865.83;;;;;;;18.09;86.11;97773.91;5042650;28;20281;-75
2023/08/02 07:56:16;;;;;;;936.47;867.05;;;;;;;18.04;87.21;97760.41;5042745;28;20697;-74
2023/08/02 07:58:41;;;;;;;960.15;880.80;;;;;;;18.20;86.43;97745.78;5042324;28;20037;-75
2023/08/02 08:01:08;;;;;;;999.22;916.22;;;;;;;18.07;87.16;97745.09;5042658;28;20398;-74
2023/08/02 08:03:34;;;;;;;942.42;865.25;;;;;;;18.23;86.78;97739.50;5042018;28;20315;-74
2023/08/02 08:05:59;;;;;;;908.15;831.60;;;;;;;18.22;87.21;97713.13;5042660;28;20118;-74
2023/08/02 08:08:24;;;;;;;1019.42;920.53;;;;;;;18.20;87.58;97720.97;5042806;28;20045;-73
2023/08/02 08:10:51;;;;;;;1023.73;922.40;;;;;;;18.21;88.21;97711.50;5042278;28;20037;-73
2023/08/02 08:13:16;;;;;;;980.78;890.33;;;;;;;18.16;88.43;97709.03;5041733;28;20818;-74
2023/08/02 08:15:41;;;;;;;979.28;887.78;;;;;;;18.13;88.01;97682.97;5042768;28;20047;-74
2023/08/02 08:18:07;;;;;;;1070.13;956.63;;;;;;;18.02;87.87;97668.22;5042543;28;20033;-73
2023/08/02 08:20:32;;;;;;;1043.33;939.10;;;;;;;18.06;88.28;97680.13;5034510;28;20647;-73
2023/08/02 08:22:57;;;;;;;1057.70;950.27;;;;;;;18.06;88.02;97677.34;5045893;28;20268;-73
2023/08/02 08:25:23;;;;;;;1046.05;944.10;;;;;;;18.19;87.33;97673.28;5046046;28;20303;-74
2023/08/02 08:27:48;;;;;;;993.10;901.80;;;;;;;18.25;86.75;97676.53;5045823;28;20047;-72
2023/08/02 08:30:13;;;;;;;949.57;866.30;;;;;;;18.24;86.44;97665.88;5046209;28;20265;-75
2023/08/02 08:32:38;;;;;;;992.67;904.90;;;;;;;18.35;86.22;97674.31;5046428;28;20285;-80
2023/08/02 08:35:04;;;;;;;951.05;869.65;;;;;;;18.37;86.11;97658.97;5045507;28;20790;-75
2023/08/02 08:37:29;;;;;;;965.10;882.33;;;;;;;18.33;85.70;97618.75;5045623;28;20401;-76
2023/08/02 08:39:55;;;;;;;918.80;849.17;;;;;;;18.33;85.15;97655.38;5045145;28;20045;-79
2023/08/02 08:42:20;;;;;;;917.65;846.33;;;;;;;18.30;85.02;97661.63;5045757;28;20303;-78
2023/08/02 08:44:46;;;;;;;892.60;823.15;;;;;;;18.41;85.48;97657.09;5046552;28;20049;-76
2023/08/02 08:47:14;;;;;;;934.35;864.28;;;;;;;18.51;84.69;97641.88;5046266;28;20129;-80
2023/08/02 08:49:39;;;;;;;876.97;812.22;;;;;;;18.52;84.49;97642.66;5045709;28;20129;-81
2023/08/02 08:52:11;;;;;;;941.35;870.17;;;;;;;18.39;84.20;97642.06;5046259;28;20123;-79
2023/08/02 08:54:38;;;;;;;891.60;824.63;;;;;;;18.24;85.27;97658.41;5045910;28;20033;-77
2023/08/02 08:57:07;;;;;;;921.40;850.83;;;;;;;18.25;85.20;97668.25;5045667;28;20041;-79
2023/08/02 08:59:34;;;;;;;893.70;827.00;;;;;;;18.22;85.49;97659.91;5044213;28;20128;-77
2023/08/02 09:02:00;;;;;;;945.40;871.33;;;;;;;18.20;85.47;97657.53;5045565;28;20032;-82
2023/08/02 09:04:26;;;;;;;973.33;885.72;;;;;;;18.12;86.32;97644.75;5046421;28;20047;-79
2023/08/02 09:06:51;;;;;;;909.92;835.95;;;;;;;18.12;86.41;97639.25;5045448;28;20544;-77
2023/08/02 09:09:16;;;;;;;922.97;844.65;;;;;;;18.22;86.29;97638.66;5043134;28;20120;-79
2023/08/02 09:11:45;;;;;;;902.63;826.80;;;;;;;18.31;86.64;97636.44;5042148;28;20033;-78
2023/08/02 09:14:12;;;;;;;971.60;887.28;;;;;;;18.58;85.77;97615.56;5043311;28;20318;-79
2023/08/02 09:16:59;;;;;;;963.15;879.38;;;;;;;18.84;85.33;97613.94;5042672;28;20067;-80
2023/08/02 09:19:27;;;;;;;910.15;833.35;;;;;;;18.77;85.49;97596.13;5043784;28;20970;-79
2023/08/02 09:22:13;;;;;;;842.17;777.17;;;;;;;18.89;84.84;97584.06;5044546;28;20148;-77
2023/08/02 09:24:40;;;;;;;940.58;869.78;;;;;;;18.94;84.75;97571.09;5045099;28;20474;-76
2023/08/02 09:27:10;;;;;;;910.28;841.30;;;;;;;19.12;83.99;97582.34;5044025;28;20403;-76
2023/08/02 09:29:48;;;;;;;898.85;832.60;;;;;;;19.18;83.78;97578.13;5045096;28;20033;-73
2023/08/02 09:32:14;;;;;;;878.88;813.88;;;;;;;19.27;83.54;97582.56;5043756;28;20060;-76
2023/08/02 09:34:44;;;;;;;889.03;823.17;;;;;;;19.31;83.08;97586.97;5044857;28;20036;-82
2023/08/02 09:37:11;;;;;;;926.88;854.55;;;;;;;19.23;83.40;97579.75;5046058;28;20033;-82
2023/08/02 09:39:37;;;;;;;905.25;836.55;;;;;;;19.38;83.02;97561.41;5045300;28;20043;-76
2023/08/02 09:42:14;;;;;;;972.42;896.03;;;;;;;19.54;82.66;97557.59;5045862;28;20397;-73
2023/08/02 09:44:41;;;;;;;991.47;909.55;;;;;;;19.71;82.21;97553.41;5044167;28;20043;-72
2023/08/02 09:47:11;;;;;;;1008.35;925.75;;;;;;;19.68;82.45;97546.69;5044367;28;20427;-73
2023/08/02 09:49:37;;;;;;;984.58;905.55;;;;;;;19.75;83.20;97545.94;5044546;28;20542;-75
2023/08/02 09:52:02;;;;;;;978.28;898.28;;;;;;;19.80;82.30;97547.56;5044876;28;20088;-75
2023/08/02 09:54:29;;;;;;;997.05;908.83;;;;;;;19.86;81.68;97551.56;5044691;28;20148;-75
2023/08/02 09:56:54;;;;;;;954.72;870.42;;;;;;;19.74;81.43;97541.59;5044801;28;20033;-76
2023/08/02 09:59:20;;;;;;;963.33;884.10;;;;;;;19.76;81.62;97536.50;5043865;28;20040;-75
2023/08/02 10:01:48;;;;;;;978.25;896.83;;;;;;;20.14;81.41;97528.13;5044243;28;20119;-73
2023/08/02 10:04:15;;;;;;;913.22;838.45;;;;;;;20.37;80.76;97535.38;5044195;28;20057;-74
2023/08/02 10:06:44;;;;;;;800.10;735.10;;;;;;;20.23;80.21;97540.81;5043855;28;20029;-75
2023/08/02 10:09:11;;;;;;;870.95;801.05;;;;;;;20.14;79.72;97516.25;5043787;28;20064;-74
2023/08/02 10:12:09;;;;;;;819.67;755.08;;;;;;;20.17;79.46;97521.84;5043577;28;20044;-75
2023/08/02 10:14:35;;;;;;;853.80;786.72;;;;;;;20.27;79.18;97522.28;5044071;28;20348;-76
2023/08/02 10:17:01;;;;;;;901.25;826.53;;;;;;;20.38;79.59;97514.81;5043652;28;20033;-74
2023/08/02 10:19:32;;;;;;;795.13;730.53;;;;;;;20.42;79.20;97520.41;5043654;28;20406;-75
2023/08/02 10:21:58;;;;;;;796.88;729.65;;;;;;;20.42;79.49;97521.19;5043530;28;20411;-74
2023/08/02 10:24:27;;;;;;;750.53;687.45;;;;;;;20.51;79.24;97522.81;5043976;28;21195;-80
2023/08/02 10:27:05;;;;;;;788.55;721.55;;;;;;;20.50;79.19;97524.00;5047007;28;20083;-78
2023/08/02 10:29:33;;;;;;;741.83;679.55;;;;;;;20.53;79.54;97515.72;5045908;28;20129;-80
2023/08/02 10:32:10;;;;;;;793.90;725.97;;;;;;;20.65;78.82;97511.81;5044165;28;20121;-76
2023/08/02 10:34:36;;;;;;;839.85;767.38;;;;;;;20.53;79.58;97517.69;5043706;28;20047;-75
2023/08/02 10:37:04;;;;;;;777.60;713.00;;;;;;;20.35;80.39;97515.63;5043230;28;20041;-76
2023/08/02 10:39:45;;;;;;;838.53;766.60;;;;;;;20.40;79.52;97514.47;5043280;28;20505;-75
2023/08/02 10:42:14;;;;;;;851.15;779.08;;;;;;;20.36;80.34;97519.94;5044088;28;20041;-74
2023/08/02 10:45:09;;;;;;;924.55;843.83;;;;;;;20.22;80.99;97517.13;5045374;28;20718;-75
2023/08/02 10:47:34;;;;;;;930.42;852.25;;;;;;;20.21;81.71;97510.00;5041370;28;20490;-75
2023/08/02 10:50:02;;;;;;;967.45;881.97;;;;;;;20.12;82.64;97511.13;5043059;28;20037;-76
2023/08/02 10:52:32;;;;;;;922.85;848.05;;;;;;;20.09;83.53;97514.66;5043511;28;20533;-75
2023/08/02 10:55:15;;;;;;;857.28;791.33;;;;;;;20.05;84.46;97508.28;5044319;28;20037;-74
2023/08/02 10:58:05;;;;;;;892.67;820.35;;;;;;;20.08;85.03;97506.72;5043712;28;20051;-76
2023/08/02 11:00:32;;;;;;;847.33;781.15;;;;;;;20.29;84.87;97500.56;5043772;28;20033;-74